Time;durP1;ratioP1;P1;durP2;ratioP2;P2;SDS_P1;SDS_P2;PMS_P1;PMS_P2;Temp;Humidity;BMP_temperature;BMP_pressure;BME280_temperature;BME280_humidity;BME280_pressure;Samples;Min_cycle;Max_cycle;Signal;HPM_P1;HPM_P2
2022/11/21 00:00:27;;;;;;;25.00;14.30;;;;;;;-1.34;98.20;99219.46;106833;1300;22103;-56
2022/11/21 00:02:53;;;;;;;20.40;13.80;;;;;;;-1.32;98.14;99216.90;106903;1303;22103;-56
2022/11/21 00:05:20;;;;;;;22.30;15.10;;;;;;;-1.31;98.14;99218.39;106655;1300;139025;-56
2022/11/21 00:07:48;;;;;;;;;;;;;;;-1.38;98.21;99215.14;106925;1300;22334;-56
2022/11/21 00:10:15;;;;;;;22.30;14.20;;;;;;;-1.32;98.15;99230.47;106749;1303;124851;-56
2022/11/21 00:12:42;;;;;;;21.30;14.00;;;;;;;-1.31;98.15;99232.33;106794;1300;23159;-56
2022/11/21 00:15:09;;;;;;;23.30;15.10;;;;;;;-1.32;98.03;99224.88;106869;1300;22220;-56
2022/11/21 00:17:36;;;;;;;25.90;16.10;;;;;;;-1.31;98.01;99214.77;106735;1302;138570;-56
2022/11/21 00:20:03;;;;;;;23.50;14.50;;;;;;;-1.28;98.23;99205.16;106818;1283;22428;-56
2022/11/21 00:22:30;;;;;;;22.60;14.50;;;;;;;-1.26;98.29;99208.45;106725;1295;142694;-56
2022/11/21 00:24:57;;;;;;;21.40;14.50;;;;;;;-1.24;98.36;99208.02;106789;1294;22132;-55
2022/11/21 00:27:24;;;;;;;21.10;14.10;;;;;;;-1.23;98.40;99196.34;106840;1295;22271;-56
2022/11/21 00:29:51;;;;;;;22.80;15.40;;;;;;;-1.22;98.19;99188.01;106810;1278;138537;-56
2022/11/21 00:32:17;;;;;;;22.10;15.30;;;;;;;-1.23;98.25;99186.36;106837;1300;22154;-56
2022/11/21 00:34:44;;;;;;;23.70;15.30;;;;;;;-1.23;98.21;99190.05;106719;1295;138639;-56
2022/11/21 00:37:11;;;;;;;25.10;16.50;;;;;;;-1.22;98.28;99186.73;106816;1293;22186;-58
2022/11/21 00:39:38;;;;;;;25.60;15.60;;;;;;;-1.19;98.09;99195.33;106790;1302;22854;-57
2022/11/21 00:42:04;;;;;;;25.80;16.80;;;;;;;-1.17;98.25;99187.24;106671;1295;138901;-57
2022/11/21 00:44:31;;;;;;;24.60;16.00;;;;;;;-1.16;98.19;99185.29;106815;1295;22325;-58
2022/11/21 00:46:58;;;;;;;28.40;17.70;;;;;;;-1.15;97.98;99173.94;106690;1290;139191;-57
2022/11/21 00:49:25;;;;;;;24.90;15.30;;;;;;;-1.14;98.11;99167.89;106861;1302;22140;-58
2022/11/21 00:51:51;;;;;;;22.60;14.80;;;;;;;-1.14;97.93;99163.66;106853;1298;22122;-57
2022/11/21 00:54:18;;;;;;;;;;;;;;;-1.15;97.91;99161.55;106757;1302;22676;-57
2022/11/21 00:56:45;;;;;;;21.60;13.80;;;;;;;-1.16;97.94;99160.89;106813;1300;22251;-58
2022/11/21 00:59:12;;;;;;;22.70;14.60;;;;;;;-1.19;97.92;99157.16;106751;1302;139422;-57
2022/11/21 01:01:38;;;;;;;22.80;14.40;;;;;;;-1.19;97.93;99160.67;106830;1300;22160;-57
2022/11/21 01:04:05;;;;;;;24.90;15.90;;;;;;;-1.17;98.17;99163.86;106797;1302;138335;-58
2022/11/21 01:06:32;;;;;;;24.70;14.90;;;;;;;-1.17;98.22;99160.11;106783;1302;23409;-57
2022/11/21 01:08:59;;;;;;;23.60;14.00;;;;;;;-1.18;98.09;99162.33;106825;1300;22089;-56
2022/11/21 01:11:25;;;;;;;25.40;14.90;;;;;;;-1.19;97.98;99157.38;106730;1302;139453;-56
2022/11/21 01:13:53;;;;;;;22.90;14.20;;;;;;;-1.20;97.86;99157.73;106789;1300;22150;-56
2022/11/21 01:16:21;;;;;;;22.20;13.80;;;;;;;-1.20;97.94;99168.30;106707;1302;139242;-56
2022/11/21 01:18:48;;;;;;;24.00;15.10;;;;;;;-1.20;97.68;99171.55;106795;1286;23012;-56
2022/11/21 01:21:20;;;;;;;22.70;14.10;;;;;;;-1.19;97.94;99162.65;106810;1287;23352;-56
2022/11/21 01:23:47;;;;;;;26.10;15.20;;;;;;;-1.17;98.16;99157.20;106721;1302;140069;-56
2022/11/21 04:40:54;;;;;;;35.10;20.10;;;;;;;-1.81;100.00;99107.71;99994;1327;556877;-58
2022/11/21 04:43:21;;;;;;;32.40;17.50;;;;;;;-1.61;100.00;99119.64;100987;1323;98790;-58
2022/11/21 04:45:48;;;;;;;33.90;18.40;;;;;;;-1.56;100.00;99122.71;101226;1322;138186;-58
2022/11/21 04:48:14;;;;;;;41.60;20.60;;;;;;;-1.51;100.00;99117.92;101272;1298;22525;-58
2022/11/21 04:50:41;;;;;;;32.90;18.90;;;;;;;-1.47;100.00;99116.83;102358;1289;25215;-57
2022/11/21 04:53:08;;;;;;;29.10;16.60;;;;;;;-1.44;100.00;99119.27;102298;1295;138368;-58
2022/11/21 04:55:35;;;;;;;33.10;18.10;;;;;;;-1.41;100.00;99124.42;102277;1310;22715;-58
2022/11/21 04:58:01;;;;;;;36.20;19.20;;;;;;;-1.40;100.00;99122.14;102213;1289;138782;-58
2022/11/21 05:00:28;;;;;;;32.40;18.90;;;;;;;-1.37;100.00;99111.98;102258;1287;25171;-57
2022/11/21 05:03:01;;;;;;;32.20;18.30;;;;;;;-1.35;100.00;99104.43;102283;1301;24308;-58
2022/11/21 05:05:28;;;;;;;33.20;18.60;;;;;;;-1.35;100.00;99096.74;106491;1296;22206;-59
2022/11/21 05:07:55;;;;;;;31.80;18.20;;;;;;;-1.38;100.00;99087.55;106560;1304;22160;-59
2022/11/21 05:10:22;;;;;;;32.50;18.20;;;;;;;-1.31;100.00;99090.98;106505;1288;138941;-58
2022/11/21 05:15:41;;;;;;;30.90;17.50;;;;;;;-1.27;100.00;99090.23;106469;1298;138412;-55
2022/11/21 05:18:08;;;;;;;35.00;17.80;;;;;;;-1.25;100.00;99080.41;106701;1303;22115;-59
2022/11/21 05:20:35;;;;;;;38.30;20.80;;;;;;;-1.23;100.00;99067.86;106699;1303;22236;-55
2022/11/21 05:23:02;;;;;;;40.70;20.40;;;;;;;-1.26;100.00;99050.20;106489;1293;138117;-55
2022/11/21 05:25:29;;;;;;;;;;;;;;;-1.21;100.00;99051.96;106729;1288;22473;-55
2022/11/21 05:27:56;;;;;;;35.60;17.70;;;;;;;-1.21;100.00;99047.20;106634;1302;124504;-55
2022/11/21 05:30:22;;;;;;;34.10;19.10;;;;;;;-1.19;100.00;99052.03;106755;1303;22192;-55
2022/11/21 05:32:49;;;;;;;30.80;18.90;;;;;;;-1.20;100.00;99051.40;106707;1296;22265;-55
2022/11/21 05:35:16;;;;;;;35.90;20.60;;;;;;;-1.21;100.00;99041.80;106576;1287;138714;-55
2022/11/21 05:37:43;;;;;;;35.30;19.20;;;;;;;-1.21;100.00;99040.79;106743;1302;22747;-55
2022/11/21 05:40:10;;;;;;;36.50;18.90;;;;;;;-1.19;100.00;99041.21;106528;1288;138353;-55
2022/11/21 05:45:26;;;;;;;33.40;18.80;;;;;;;-1.16;100.00;99044.52;106424;1291;139214;-55
2022/11/21 05:47:53;;;;;;;34.40;18.70;;;;;;;-1.14;100.00;99054.92;106624;1296;22256;-55
2022/11/21 05:50:20;;;;;;;34.30;18.60;;;;;;;-1.12;100.00;99054.48;106677;1303;22115;-55
2022/11/21 05:52:46;;;;;;;37.40;19.80;;;;;;;-1.15;100.00;99048.60;106581;1303;139253;-55
2022/11/21 05:55:13;;;;;;;;;;;;;;;-1.10;100.00;99059.41;106665;1303;22340;-55
2022/11/21 05:57:40;;;;;;;35.00;17.00;;;;;;;-1.09;100.00;99068.73;106584;1303;124921;-55
2022/11/21 06:00:07;;;;;;;41.10;19.60;;;;;;;-1.08;100.00;99066.05;106691;1303;22276;-55
2022/11/21 06:05:19;;;;;;;36.10;18.40;;;;;;;-1.06;100.00;99045.70;106564;1288;138876;-55
2022/11/21 06:07:46;;;;;;;36.50;17.70;;;;;;;-1.07;100.00;99045.77;106672;1303;22258;-55
2022/11/21 06:10:13;;;;;;;37.00;17.80;;;;;;;-1.05;100.00;99045.30;106583;1297;138943;-55
2022/11/21 06:12:40;;;;;;;36.10;19.90;;;;;;;-1.05;100.00;99053.65;106661;1303;22282;-55
2022/11/21 06:15:07;;;;;;;34.50;17.10;;;;;;;-1.04;100.00;99060.84;106548;1303;138597;-58
2022/11/21 06:17:36;;;;;;;35.40;17.50;;;;;;;-1.03;100.00;99069.13;106655;1303;22335;-55
2022/11/21 06:20:03;;;;;;;33.90;18.20;;;;;;;-1.03;100.00;99067.23;106653;1302;22150;-55
2022/11/21 06:22:30;;;;;;;32.00;17.10;;;;;;;-1.05;100.00;99060.02;106572;1296;139034;-55
2022/11/21 06:24:57;;;;;;;35.40;18.40;;;;;;;-0.99;100.00;99065.35;106656;1303;22202;-55
2022/11/21 06:27:23;;;;;;;31.70;16.90;;;;;;;-1.00;99.99;99051.48;106546;1303;138926;-55
2022/11/21 06:29:50;;;;;;;35.70;17.10;;;;;;;-1.00;99.96;99062.80;106649;1303;22329;-55
2022/11/21 06:32:17;;;;;;;33.60;17.60;;;;;;;-0.99;100.00;99072.47;106662;1297;22173;-55
2022/11/21 06:34:43;;;;;;;;;;;;;;;-0.98;99.94;99068.61;106569;1295;138714;-55
2022/11/21 06:37:10;;;;;;;36.30;18.80;;;;;;;-0.97;100.00;99075.91;106662;1303;22106;-55
2022/11/21 06:39:37;;;;;;;;;;;;;;;-0.97;99.84;99063.07;106528;1303;138757;-55
2022/11/21 06:42:04;;;;;;;42.70;18.80;;;;;;;-0.96;99.77;99060.45;106653;1301;22254;-55
2022/11/21 06:44:30;;;;;;;;;;;;;;;-0.96;99.83;99065.46;106678;1289;23125;-55
2022/11/21 06:46:57;;;;;;;38.60;17.50;;;;;;;-0.96;99.95;99076.94;106595;1303;124191;-55
2022/11/21 06:49:24;;;;;;;38.40;18.40;;;;;;;-0.96;99.69;99081.31;106639;1293;22286;-55
2022/11/21 06:51:51;;;;;;;;;;;;;;;-0.94;99.69;99077.36;106531;1303;139105;-55
2022/11/21 06:54:18;;;;;;;37.10;17.80;;;;;;;-0.94;99.67;99063.39;106650;1303;22249;-55
2022/11/21 06:56:44;;;;;;;31.60;17.00;;;;;;;-0.95;99.83;99053.98;106621;1303;22205;-54
2022/11/21 06:59:11;;;;;;;31.60;17.80;;;;;;;-1.01;99.76;99049.85;106360;1296;138242;-54
2022/11/21 07:01:38;;;;;;;35.50;17.90;;;;;;;-0.95;99.84;99059.30;106415;1304;22342;-55
2022/11/21 07:04:05;;;;;;;;;;;;;;;-0.94;99.69;99063.27;106575;1296;138183;-54
2022/11/21 07:06:33;;;;;;;35.90;17.20;;;;;;;-0.91;99.64;99058.23;106606;1296;22234;-55
2022/11/21 07:09:00;;;;;;;29.80;16.40;;;;;;;-0.89;99.76;99061.78;106690;1303;22234;-54
2022/11/21 07:11:46;;;;;;;30.30;17.10;;;;;;;-0.89;99.74;99075.28;106689;1287;22301;-55
2022/11/21 07:14:13;;;;;;;28.70;16.70;;;;;;;-0.88;99.67;99072.45;106676;1306;23005;-54
2022/11/21 07:16:40;;;;;;;28.50;15.90;;;;;;;-0.87;99.42;99069.08;106506;1288;137860;-57
2022/11/21 07:19:07;;;;;;;31.20;18.90;;;;;;;-0.85;99.59;99077.02;106649;1303;23223;-55
2022/11/21 07:21:33;;;;;;;36.60;18.80;;;;;;;-0.83;99.57;99086.61;106564;1302;138198;-55
2022/11/21 07:24:00;;;;;;;30.10;16.50;;;;;;;-0.81;99.53;99083.46;106636;1287;22259;-56
2022/11/21 07:26:27;;;;;;;29.40;16.70;;;;;;;-0.79;99.36;99083.16;106540;1282;22211;-56
2022/11/21 07:28:53;;;;;;;32.50;18.30;;;;;;;-0.79;99.43;99079.62;106574;1277;137929;-55
2022/11/21 07:31:20;;;;;;;30.30;16.20;;;;;;;-0.75;99.42;99077.84;106669;1302;22436;-56
2022/11/21 07:33:47;;;;;;;29.70;16.90;;;;;;;-0.73;99.39;99067.70;106539;1290;139195;-56
2022/11/21 07:36:14;;;;;;;30.40;16.60;;;;;;;-0.71;99.41;99071.29;106690;1302;22196;-56
2022/11/21 07:38:40;;;;;;;31.00;17.80;;;;;;;-0.70;99.44;99075.80;106704;1296;23065;-56
2022/11/21 07:41:08;;;;;;;33.10;19.00;;;;;;;-0.67;99.35;99065.15;106605;1301;137843;-56
2022/11/21 07:43:35;;;;;;;31.20;17.80;;;;;;;-0.65;99.14;99065.25;106725;1302;22147;-56
2022/11/21 07:46:02;;;;;;;;;;;;;;;-0.63;99.19;99067.48;106581;1294;138227;-55
2022/11/21 07:48:28;;;;;;;29.40;17.00;;;;;;;-0.63;99.17;99060.13;106692;1288;23035;-56
2022/11/21 07:50:55;;;;;;;28.00;17.00;;;;;;;-0.64;99.21;99059.34;106683;1306;22226;-56
2022/11/21 07:53:22;;;;;;;39.00;20.60;;;;;;;-0.63;99.02;99057.08;106550;1288;138077;-56
2022/11/21 07:55:49;;;;;;;41.20;22.20;;;;;;;-0.61;99.04;99045.69;106685;1297;22362;-56
2022/11/21 07:58:16;;;;;;;96.70;47.00;;;;;;;-0.60;98.92;99035.50;106599;1302;139227;-56
2022/11/21 08:00:43;;;;;;;;;;;;;;;-0.59;99.24;99026.41;106726;1298;23202;-57
2022/11/21 08:03:13;;;;;;;36.20;20.20;;;;;;;-0.59;98.89;99023.31;106716;1302;22151;-57
2022/11/21 08:05:42;;;;;;;31.00;17.10;;;;;;;-0.64;98.98;99020.36;106695;1303;22798;-57
2022/11/21 08:08:10;;;;;;;34.80;18.80;;;;;;;-0.62;98.72;99030.01;106711;1296;22155;-57
2022/11/21 08:10:38;;;;;;;37.30;21.60;;;;;;;-0.65;98.78;99025.88;106602;1303;138137;-57
2022/11/21 08:13:04;;;;;;;37.50;20.80;;;;;;;-0.61;98.76;99032.27;106698;1303;22880;-56
2022/11/21 08:15:31;;;;;;;41.90;22.60;;;;;;;-0.61;98.78;99031.41;106566;1306;138699;-56
2022/11/21 08:17:58;;;;;;;39.20;22.00;;;;;;;-0.63;98.78;99035.31;106686;1296;23089;-57
2022/11/21 08:20:24;;;;;;;39.10;20.40;;;;;;;-0.62;98.69;99038.44;106683;1303;22112;-56
2022/11/21 08:22:51;;;;;;;;;;;;;;;-0.62;98.56;99034.94;106534;1297;139017;-56
2022/11/21 08:25:18;;;;;;;30.00;17.40;;;;;;;-0.63;98.87;99040.74;106512;1304;22353;-57
2022/11/21 08:27:45;;;;;;;29.80;17.40;;;;;;;-0.64;98.71;99048.15;106450;1281;138683;-56
2022/11/21 08:30:12;;;;;;;33.90;20.00;;;;;;;-0.64;98.72;99056.34;106670;1303;23328;-56
2022/11/21 08:32:39;;;;;;;33.00;20.30;;;;;;;-0.62;98.76;99058.64;106698;1302;22330;-57
2022/11/21 08:35:06;;;;;;;36.30;21.10;;;;;;;-0.61;98.82;99053.84;106650;1303;138011;-56
2022/11/21 08:37:32;;;;;;;33.70;19.30;;;;;;;-0.60;98.81;99044.99;106725;1291;22310;-56
2022/11/21 08:39:59;;;;;;;35.00;20.50;;;;;;;-0.61;98.59;99034.70;106632;1295;138878;-56
2022/11/21 08:42:26;;;;;;;;;;;;;;;-0.61;98.66;99035.69;106693;1303;23471;-56
2022/11/21 08:44:53;;;;;;;31.80;16.60;;;;;;;-0.62;98.52;99025.80;106697;1297;22886;-57
2022/11/21 08:47:20;;;;;;;35.40;19.20;;;;;;;-0.63;98.42;99021.67;106655;1303;138703;-56
2022/11/21 08:49:47;;;;;;;33.00;19.70;;;;;;;-0.64;98.78;99019.82;106652;1303;23311;-56
2022/11/21 08:52:16;;;;;;;29.80;19.10;;;;;;;-0.64;98.47;99017.10;106588;1297;138807;-55
2022/11/21 08:54:43;;;;;;;40.50;20.90;;;;;;;-0.64;98.64;99016.73;106699;1306;22163;-56
2022/11/21 08:57:11;;;;;;;33.70;19.50;;;;;;;-0.65;98.61;99014.34;106659;1284;23040;-56
2022/11/21 08:59:37;;;;;;;40.90;19.80;;;;;;;-0.64;98.72;99017.27;106566;1296;138078;-56
2022/11/21 09:02:04;;;;;;;32.20;19.60;;;;;;;-0.62;98.72;99011.56;106713;1297;23491;-56
2022/11/21 09:04:31;;;;;;;;;;;;;;;-0.60;98.60;99012.77;106665;1303;139531;-54
2022/11/21 09:06:58;;;;;;;35.10;20.60;;;;;;;-0.58;98.57;99006.36;106754;1302;22149;-55
2022/11/21 09:09:24;;;;;;;;;;;;;;;-0.60;98.52;99003.56;106651;1303;138566;-56
2022/11/21 09:11:51;;;;;;;27.90;15.20;;;;;;;-0.61;98.38;99005.89;106730;1294;22146;-57
2022/11/21 09:19:49;;;;;;;33.30;19.50;;;;;;;-0.60;98.38;99009.61;106747;1303;22225;-58
2022/11/21 09:22:15;;;;;;;;;;;;;;;-0.59;98.61;99007.52;106613;1274;139694;-56
2022/11/21 09:24:42;;;;;;;29.10;17.70;;;;;;;-0.58;98.48;99012.45;106710;1296;22135;-57
2022/11/21 09:27:09;;;;;;;29.90;17.10;;;;;;;-0.57;98.64;99018.04;106673;1303;22310;-57
2022/11/21 09:29:36;;;;;;;28.70;17.20;;;;;;;-0.56;98.65;99024.63;106543;1303;138039;-56
2022/11/21 09:32:02;;;;;;;32.50;18.70;;;;;;;-0.53;98.52;99020.61;106699;1302;22242;-56
2022/11/21 09:34:30;;;;;;;34.30;18.80;;;;;;;-0.51;98.50;99021.24;106591;1283;138156;-56
2022/11/21 09:36:57;;;;;;;31.10;18.10;;;;;;;-0.48;98.73;99022.73;106688;1303;22364;-56
2022/11/21 09:39:24;;;;;;;33.40;18.40;;;;;;;-0.46;98.43;99025.30;106588;1303;139433;-58
2022/11/21 09:41:51;;;;;;;31.30;17.50;;;;;;;-0.43;98.31;99020.83;106694;1303;22254;-57
2022/11/21 09:44:36;;;;;;;33.10;17.80;;;;;;;-0.41;98.46;99014.40;106752;1303;22123;-56
2022/11/21 09:47:17;;;;;;;28.70;17.50;;;;;;;-0.38;98.30;99010.79;106461;1303;138589;-57
2022/11/21 09:49:47;;;;;;;29.50;16.80;;;;;;;-0.39;98.11;99006.63;106559;1285;22257;-57
2022/11/21 09:52:14;;;;;;;30.50;17.40;;;;;;;-0.38;97.98;99004.78;106573;1303;138225;-57
2022/11/21 09:54:47;;;;;;;29.50;15.80;;;;;;;-0.37;97.93;99002.08;106743;1303;22978;-55
2022/11/21 09:57:14;;;;;;;30.60;17.20;;;;;;;-0.34;98.01;99001.22;106664;1303;138282;-57
2022/11/21 09:59:41;;;;;;;32.20;18.60;;;;;;;-0.31;97.98;98997.24;106544;1303;22115;-56
2022/11/21 10:02:18;;;;;;;31.80;17.50;;;;;;;-0.27;97.78;99002.42;106750;1303;22396;-56
2022/11/21 10:04:46;;;;;;;24.90;14.50;;;;;;;-0.24;97.99;98999.89;106530;1296;138248;-58
2022/11/21 10:07:20;;;;;;;27.30;16.50;;;;;;;-0.24;97.94;98990.95;106623;1302;22135;-56
2022/11/21 10:10:09;;;;;;;24.90;14.40;;;;;;;-0.29;97.61;98978.45;106674;1303;138568;-58
2022/11/21 10:12:41;;;;;;;29.60;15.20;;;;;;;-0.22;97.43;98985.02;106554;1302;22119;-57
2022/11/21 10:15:24;;;;;;;26.60;15.20;;;;;;;-0.22;97.61;98984.66;106593;1303;23399;-57
2022/11/21 10:17:56;;;;;;;25.30;15.90;;;;;;;-0.21;97.38;98976.85;106734;1303;22123;-58
2022/11/21 10:20:32;;;;;;;81.20;38.60;;;;;;;-0.20;97.06;98978.69;106765;1303;22967;-56
2022/11/21 15:50:28;;;;;;;4.20;3.30;;;;;;;-0.47;100.00;98381.39;99963;1318;557042;-61
2022/11/21 15:52:55;;;;;;;;;;;;;;;-0.35;100.00;98360.50;101230;1307;83247;-60
2022/11/21 15:55:24;;;;;;;7.30;5.80;;;;;;;-0.32;100.00;98356.25;101461;1298;124072;-61
2022/11/21 15:57:51;;;;;;;27.60;17.50;;;;;;;-0.31;100.00;98343.08;101367;1306;25227;-55
2022/11/21 16:00:18;;;;;;;;;;;;;;;-0.29;100.00;98329.72;101273;1305;22517;-55
2022/11/21 16:02:44;;;;;;;31.40;15.70;;;;;;;-0.28;100.00;98326.94;101064;1298;124346;-61
2022/11/21 16:05:13;;;;;;;35.00;19.10;;;;;;;-0.29;100.00;98326.35;101105;1308;22890;-60
2022/11/21 16:07:40;;;;;;;28.20;15.30;;;;;;;-0.29;100.00;98330.73;101043;1298;139067;-61
2022/11/21 16:10:07;;;;;;;;;;;;;;;-0.27;100.00;98323.05;101147;1300;22467;-62
2022/11/21 16:12:45;;;;;;;9.00;7.10;;;;;;;-0.28;100.00;98309.55;101127;1301;25560;-62
2022/11/21 16:15:13;;;;;;;7.70;5.90;;;;;;;-0.29;100.00;98303.31;101039;1300;139724;-61
2022/11/21 16:17:40;;;;;;;9.90;6.10;;;;;;;-0.30;100.00;98300.73;101069;1302;22539;-61
2022/11/21 16:20:08;;;;;;;16.70;7.80;;;;;;;-0.31;100.00;98292.27;101218;1308;137781;-62
2022/11/21 16:22:34;;;;;;;9.20;6.20;;;;;;;-0.30;100.00;98285.14;105766;1315;22125;-61
2022/11/21 16:25:01;;;;;;;13.60;6.10;;;;;;;-0.30;100.00;98277.19;105821;1315;22160;-61
2022/11/21 16:27:28;;;;;;;;;;;;;;;-0.29;100.00;98277.52;105724;1315;138495;-61
2022/11/21 16:29:55;;;;;;;10.50;6.90;;;;;;;-0.28;100.00;98271.06;105733;1310;22167;-61
2022/11/21 16:32:24;;;;;;;8.90;5.80;;;;;;;-0.27;100.00;98266.77;105700;1315;138298;-61
2022/11/21 16:34:51;;;;;;;7.30;4.70;;;;;;;-0.26;100.00;98266.84;105834;1299;22260;-61
2022/11/21 16:37:17;;;;;;;;;;;;;;;-0.26;100.00;98259.19;105719;1315;138088;-61
2022/11/21 16:39:50;;;;;;;11.30;6.20;;;;;;;-0.25;100.00;98251.69;105777;1310;22183;-61
2022/11/21 16:42:18;;;;;;;8.80;5.70;;;;;;;-0.25;100.00;98241.39;105769;1315;22258;-61
2022/11/21 16:44:44;;;;;;;17.50;11.70;;;;;;;-0.24;100.00;98227.46;105826;1315;138838;-60
2022/11/21 16:47:12;;;;;;;35.60;18.60;;;;;;;-0.23;100.00;98218.23;101947;1299;25008;-61
2022/11/21 16:49:43;;;;;;;26.10;15.20;;;;;;;-0.23;100.00;98214.81;101226;1299;139184;-62
2022/11/21 16:52:10;;;;;;;22.70;13.80;;;;;;;-0.23;100.00;98211.11;101182;1294;22620;-61
2022/11/21 16:54:37;;;;;;;9.40;7.00;;;;;;;-0.25;100.00;98212.12;101257;1308;25383;-60
2022/11/21 16:57:04;;;;;;;11.00;7.90;;;;;;;-0.25;100.00;98214.95;101542;1295;137794;-60
2022/11/21 16:59:31;;;;;;;6.60;5.10;;;;;;;-0.27;100.00;98221.84;101933;1292;25412;-61
2022/11/21 17:01:58;;;;;;;5.70;4.40;;;;;;;-0.27;100.00;98228.27;101773;1292;140170;-61
2022/11/21 17:04:24;;;;;;;6.80;4.20;;;;;;;-0.26;100.00;98230.08;101932;1285;24146;-61
2022/11/21 17:06:52;;;;;;;;;;;;;;;-0.25;100.00;98221.95;101938;1294;25252;-60
2022/11/21 17:09:18;;;;;;;6.50;4.30;;;;;;;-0.26;100.00;98219.98;101817;1291;124566;-60
2022/11/21 17:11:45;;;;;;;;;;;;;;;-0.26;100.00;98220.51;102012;1285;22603;-60
2022/11/21 17:14:12;;;;;;;15.40;8.30;;;;;;;-0.25;100.00;98220.52;101633;1284;124994;-60
2022/11/21 17:16:40;;;;;;;6.50;4.40;;;;;;;-0.25;100.00;98215.86;101967;1300;24031;-60
2022/11/21 17:19:09;;;;;;;10.80;7.20;;;;;;;-0.25;100.00;98208.48;105951;1315;138747;-60
2022/11/21 17:21:36;;;;;;;11.30;8.20;;;;;;;-0.25;100.00;98208.70;106170;1308;22256;-62
2022/11/21 17:24:03;;;;;;;7.90;6.20;;;;;;;-0.25;100.00;98208.27;106379;1295;22268;-61
2022/11/21 17:26:30;;;;;;;;;;;;;;;-0.26;100.00;98197.42;106308;1306;138204;-61
2022/11/21 17:28:58;;;;;;;4.30;3.40;;;;;;;-0.23;100.00;98192.96;106448;1306;22212;-61
2022/11/21 17:31:25;;;;;;;4.30;2.80;;;;;;;-0.25;100.00;98190.87;106273;1306;137782;-60
2022/11/21 17:33:53;;;;;;;8.20;6.60;;;;;;;-0.26;100.00;98187.91;106468;1291;22218;-61
2022/11/21 17:36:21;;;;;;;10.60;6.60;;;;;;;-0.26;100.00;98182.77;106475;1285;23214;-60
2022/11/21 17:38:48;;;;;;;8.20;6.20;;;;;;;-0.25;100.00;98179.54;106312;1299;138742;-61
2022/11/21 17:41:15;;;;;;;;;;;;;;;-0.24;100.00;98177.60;106499;1292;22627;-59
2022/11/21 17:43:42;;;;;;;8.80;5.60;;;;;;;-0.22;100.00;98170.21;106340;1285;124530;-60
2022/11/21 17:46:11;;;;;;;11.50;6.70;;;;;;;-0.21;100.00;98160.77;106418;1291;22119;-60
2022/11/21 17:48:38;;;;;;;17.00;11.80;;;;;;;-0.20;100.00;98159.81;106440;1306;23226;-60
2022/11/21 17:51:13;;;;;;;16.20;11.10;;;;;;;-0.19;100.00;98159.28;106333;1285;138953;-60
2022/11/21 17:53:41;;;;;;;16.00;9.00;;;;;;;-0.17;100.00;98159.88;106422;1306;22182;-61
2022/11/21 17:56:16;;;;;;;9.30;6.30;;;;;;;-0.16;100.00;98154.77;106308;1306;138857;-61
2022/11/21 17:58:43;;;;;;;7.30;5.00;;;;;;;-0.16;100.00;98153.05;106471;1306;23402;-61
2022/11/21 18:01:12;;;;;;;;;;;;;;;-0.14;100.00;98154.65;106338;1298;137866;-60
2022/11/21 18:03:39;;;;;;;6.70;4.90;;;;;;;-0.13;100.00;98159.81;106465;1292;22957;-61
2022/11/21 18:06:07;;;;;;;6.70;5.20;;;;;;;-0.11;100.00;98157.36;106485;1284;22240;-61
2022/11/21 18:08:35;;;;;;;6.40;5.20;;;;;;;-0.09;100.00;98159.23;106331;1300;137568;-60
2022/11/21 18:11:03;;;;;;;6.30;4.70;;;;;;;-0.06;100.00;98157.19;106510;1291;22225;-60
2022/11/21 18:13:30;;;;;;;9.20;6.00;;;;;;;-0.04;100.00;98156.77;106329;1282;137909;-60
2022/11/21 18:16:04;;;;;;;5.20;3.60;;;;;;;-0.04;100.00;98160.10;106437;1306;22924;-60
2022/11/21 18:18:32;;;;;;;5.50;3.70;;;;;;;-0.04;100.00;98157.67;106506;1299;22226;-61
2022/11/21 18:21:09;;;;;;;17.30;12.60;;;;;;;-0.04;100.00;98156.84;106298;1306;138594;-60
2022/11/21 18:23:35;;;;;;;11.80;7.40;;;;;;;-0.03;100.00;98154.52;106459;1306;22287;-61
2022/11/21 18:26:06;;;;;;;;;;;;;;;-0.01;100.00;98152.16;106337;1306;138043;-61
2022/11/21 18:28:33;;;;;;;33.60;19.10;;;;;;;-0.01;100.00;98147.61;106467;1301;22391;-61
2022/11/21 18:31:04;;;;;;;18.40;11.00;;;;;;;0.01;100.00;98142.35;106426;1284;22263;-61
2022/11/21 18:33:31;;;;;;;9.50;6.40;;;;;;;0.03;100.00;98144.64;106346;1292;138424;-61
2022/11/21 18:35:58;;;;;;;10.00;8.30;;;;;;;0.02;100.00;98141.35;106452;1306;22240;-61
2022/11/21 18:38:24;;;;;;;11.30;9.70;;;;;;;0.01;100.00;98134.31;106265;1306;138674;-61
2022/11/21 18:41:13;;;;;;;13.30;11.50;;;;;;;0.03;100.00;98135.66;106502;1306;22243;-61
2022/11/21 18:43:40;;;;;;;8.90;7.90;;;;;;;0.06;100.00;98143.17;106395;1306;138309;-61
2022/11/21 18:46:11;;;;;;;9.70;7.60;;;;;;;0.07;100.00;98146.54;106437;1298;22944;-60
2022/11/21 18:48:41;;;;;;;9.00;8.00;;;;;;;0.09;100.00;98148.98;106491;1306;22269;-60
2022/11/21 18:51:29;;;;;;;10.20;6.30;;;;;;;0.11;100.00;98142.70;106343;1296;138731;-60
2022/11/21 18:54:02;;;;;;;8.60;5.30;;;;;;;0.14;100.00;98140.36;106492;1298;22245;-61
2022/11/21 18:56:29;;;;;;;5.10;3.90;;;;;;;0.15;100.00;98142.64;106349;1295;136880;-60
2022/11/21 18:58:56;;;;;;;;;;;;;;;0.11;100.00;98135.68;106470;1303;22358;-60
2022/11/21 19:01:27;;;;;;;4.70;3.10;;;;;;;0.16;100.00;98137.18;106413;1292;125768;-59
2022/11/21 19:03:54;;;;;;;3.10;2.30;;;;;;;0.14;100.00;98136.52;106490;1306;22132;-61
2022/11/21 19:06:21;;;;;;;;;;;;;;;0.13;100.00;98128.39;106516;1306;22428;-61
2022/11/21 19:08:49;;;;;;;3.90;2.60;;;;;;;0.15;100.00;98135.55;106424;1291;125879;-60
2022/11/21 19:11:16;;;;;;;3.50;3.00;;;;;;;0.16;100.00;98140.77;106425;1306;22248;-59
2022/11/21 19:13:43;;;;;;;3.90;2.90;;;;;;;0.18;100.00;98147.42;106126;1306;137847;-59
2022/11/21 19:16:12;;;;;;;4.40;2.80;;;;;;;0.18;100.00;98149.56;106486;1306;22290;-60
2022/11/21 19:18:39;;;;;;;3.90;2.60;;;;;;;0.16;100.00;98153.25;106511;1299;22308;-60
2022/11/21 19:21:13;;;;;;;4.60;2.50;;;;;;;0.14;100.00;98153.01;106366;1306;138135;-60
2022/11/21 19:23:41;;;;;;;3.10;2.50;;;;;;;0.13;100.00;98148.70;106431;1300;22205;-61
2022/11/21 19:26:13;;;;;;;3.60;2.50;;;;;;;0.15;100.00;98145.58;106349;1291;137770;-60
2022/11/21 19:28:41;;;;;;;5.30;3.00;;;;;;;0.14;100.00;98148.73;106468;1305;22261;-60
2022/11/21 19:31:10;;;;;;;9.30;5.20;;;;;;;0.13;100.00;98145.81;106453;1294;23031;-60
2022/11/21 19:33:37;;;;;;;9.70;6.10;;;;;;;0.13;100.00;98145.98;106425;1291;22155;-60
2022/11/21 19:36:04;;;;;;;;;;;;;;;0.14;100.00;98144.43;106455;1293;22346;-60
2022/11/21 19:38:31;;;;;;;7.20;4.30;;;;;;;0.14;100.00;98144.02;106394;1284;124370;-60
2022/11/21 19:41:17;;;;;;;;;;;;;;;0.15;100.00;98136.80;106519;1277;22384;-60
2022/11/21 19:43:55;;;;;;;5.80;3.30;;;;;;;0.15;100.00;98132.67;106284;1306;124205;-59
2022/11/21 19:46:33;;;;;;;13.60;8.90;;;;;;;0.03;100.00;98122.81;106429;1285;22162;-60
2022/11/21 19:49:00;;;;;;;8.60;4.90;;;;;;;0.08;100.00;98136.88;106450;1306;22244;-61
2022/11/21 19:51:29;;;;;;;6.90;3.70;;;;;;;0.06;100.00;98143.58;106402;1306;137335;-61
2022/11/21 19:53:56;;;;;;;8.60;4.20;;;;;;;0.05;100.00;98147.38;106418;1306;22240;-61
2022/11/21 19:56:23;;;;;;;;;;;;;;;0.03;100.00;98148.39;106393;1292;137862;-61
2022/11/21 19:58:51;;;;;;;7.60;4.90;;;;;;;-0.02;100.00;98149.08;106442;1285;22963;-61
2022/11/21 20:01:19;;;;;;;5.00;3.30;;;;;;;-0.04;100.00;98152.81;106411;1302;138113;-62
2022/11/21 20:03:47;;;;;;;4.40;3.50;;;;;;;-0.04;100.00;98154.16;106432;1306;22908;-62
2022/11/21 20:06:15;;;;;;;5.50;3.50;;;;;;;-0.05;100.00;98153.11;106541;1285;22186;-61
2022/11/21 20:08:42;;;;;;;5.80;4.20;;;;;;;-0.06;100.00;98153.14;106291;1298;138035;-61
2022/11/21 20:11:10;;;;;;;;;;;;;;;-0.04;100.00;98151.90;106465;1285;22467;-61
2022/11/21 20:13:41;;;;;;;18.00;8.90;;;;;;;-0.06;100.00;98150.23;106374;1291;124815;-61
2022/11/21 20:16:21;;;;;;;9.80;5.80;;;;;;;-0.06;100.00;98148.27;106534;1306;22111;-60